• Join FlightAware (Why Join?)
  • Login
  • US Flag 
10:54AM EST


 

Airport Tracker/Info


-or-


 

Live Flight TrackerFlight Track Log ✈ UAL481 ✈ 18-Jun-2013 ✈ KORD - KDEN

Flight Track Log - Related Links

Times and Time Zones

All times are in EDT time to prevent confusion due to time zone crossing. See the UAL481 flight status page for this flight to view local times or setup timezone preferences in your user account.

Time Position Orientation Groundspeed Altitude Reporting Facility
EDT Latitude Longitude Course Direction KTS MPH feet Rate Location/Type
10:44PM 42.0000 -87.9500 261° West 154 177 1,900  Level Chicago TRACON
10:45PM 42.0500 -87.9833 334° Northwest 220 253 4,000 2,100 Climbing Chicago TRACON
10:46PM 42.1000 -88.0333 323° Northwest 278 320 5,900 2,880 Climbing Chicago TRACON
10:47PM 42.1333 -88.1333 294° West 284 327 9,500 2,700 Climbing Chicago TRACON
10:48PM 41.9026 -88.5865 261° West  Level FlightAware Approximate
10:48PM 42.0831 -88.2603 242° Southwest 295 339 12,800  Level Chicago Center
10:49PM 41.8863 -88.7248 261° West  Level FlightAware Approximate
10:49PM 42.0433 -88.3803 246° West 346 398 13,200  Level Chicago Center
10:50PM 41.9961 -88.5228 246° West 412 474 15,100 2,040 Climbing Chicago Center
10:51PM 41.9414 -88.6939 247° West 420 483 17,400 1,980 Climbing Chicago Center
10:52PM 41.8914 -88.8431 246° West 438 504 19,200 1,620 Climbing Chicago Center
10:53PM 41.8422 -88.9922 246° West 443 510 20,800 1,560 Climbing Chicago Center
10:54PM 41.7908 -89.1431 245° Southwest 447 514 22,500 1,380 Climbing Chicago Center
10:55PM 41.7419 -89.2983 247° West 457 526 23,700 1,260 Climbing Chicago Center
10:56PM 41.6906 -89.4514 246° West 456 525 25,200 1,320 Climbing Chicago Center
10:57PM 41.6356 -89.6308 248° West 461 531 26,500 1,140 Climbing Chicago Center
10:58PM 41.5958 -89.7936 252° West 464 534 27,600 1,260 Climbing Chicago Center
10:59PM 41.5544 -89.9556 251° West 465 535 29,200 1,620 Climbing Chicago Center
11:01PM 41.5136 -90.1122 251° West 455 524 31,000 1,560 Climbing Chicago Center
11:02PM 41.4825 -90.2681 255° West 443 510 32,500 1,320 Climbing Chicago Center
11:03PM 41.4789 -90.4211 268° West 422 486 33,800 720 Climbing Chicago Center
11:04PM 41.4761 -90.5750 269° West 420 483 34,000 60 Climbing Chicago Center
11:05PM 41.4700 -90.7714 268° West 440 506 34,000  Level Chicago Center
11:06PM 41.4667 -90.9275 268° West 427 491 34,000  Level Chicago Center
11:07PM 41.4631 -91.0842 268° West 425 489 34,000  Level Chicago Center
11:08PM 41.4600 -91.2433 269° West 430 495 34,000  Level Chicago Center
11:09PM 41.4550 -91.4164 268° West 428 493 34,000  Level Chicago Center
11:10PM 41.4508 -91.5769 268° West 434 499 34,000  Level Chicago Center
11:11PM 41.4456 -91.7392 268° West 440 506 34,000  Level Chicago Center
11:12PM 41.4414 -91.9008 268° West 440 506 34,000  Level Chicago Center
11:13PM 41.4369 -92.0617 268° West 439 505 34,000  Level Chicago Center
11:14PM 41.4311 -92.2211 267° West 435 501 34,000 60 Level Chicago Center
11:15PM 41.4247 -92.3978 267° West 430 495 34,200 600 Climbing Chicago Center
11:16PM 41.4192 -92.5550 267° West 429 494 35,300 840 Climbing Chicago Center
11:17PM 41.4142 -92.7083 268° West 423 487 36,000 300 Climbing Minneapolis Center
11:18PM 41.4081 -92.8600 267° West 417 480 36,000  Level Minneapolis Center
11:19PM 41.4008 -93.0436 267° West 418 481 36,000  Level Minneapolis Center
11:20PM 41.3944 -93.1978 267° West 420 483 36,000  Level Minneapolis Center
11:21PM 41.3875 -93.3503 267° West 419 482 36,000  Level Minneapolis Center
11:22PM 41.3806 -93.5042 267° West 420 483 36,000  Level Minneapolis Center
11:23PM 41.3750 -93.6542 267° West 415 478 36,000  Level Minneapolis Center
11:24PM 41.3683 -93.8081 267° West 419 482 36,000  Level Minneapolis Center
11:25PM 41.3597 -93.9922 266° West 420 483 36,000  Level Minneapolis Center
11:26PM 41.3531 -94.1464 267° West 422 486 36,000  Level Minneapolis Center
11:27PM 41.3450 -94.2900 266° West 422 486 36,000  Level Minneapolis Center
11:28PM 41.3369 -94.4458 266° West 423 487 36,000  Level Minneapolis Center
11:29PM 41.3289 -94.6017 266° West 422 486 36,000  Level Minneapolis Center
11:30PM 41.3169 -94.7864 265° West 418 481 36,000  Level Minneapolis Center
11:31PM 41.3086 -94.9419 266° West 421 484 36,000  Level Minneapolis Center
11:32PM 41.2986 -95.0964 265° West 419 482 36,000  Level Minneapolis Center
11:33PM 41.2900 -95.2486 266° West 415 478 36,000  Level Minneapolis Center
11:34PM 41.2797 -95.4036 265° West 417 480 36,000  Level Minneapolis Center
11:35PM 41.2694 -95.5567 265° West 417 480 36,000  Level Minneapolis Center
11:36PM 41.2603 -95.7178 266° West 420 483 36,000  Level Minneapolis Center
11:37PM 41.2506 -95.8728 265° West 422 486 36,000  Level Minneapolis Center
11:38PM 41.2406 -96.0267 265° West 420 483 36,000  Level Minneapolis Center
11:39PM 41.2297 -96.1814 265° West 421 484 36,000  Level Minneapolis Center
11:40PM 41.2192 -96.3417 265° West 421 484 36,000  Level Minneapolis Center
11:41PM 41.2081 -96.4978 265° West 423 487 36,000  Level Minneapolis Center
11:42PM 41.1964 -96.6553 264° West 427 491 36,000  Level Minneapolis Center
11:43PM 41.1847 -96.8114 264° West 425 489 36,000  Level Minneapolis Center
11:45PM 41.1731 -96.9667 264° West 424 488 36,000  Level Minneapolis Center
11:46PM 41.1592 -97.1517 264° West 421 484 36,000  Level Minneapolis Center
11:47PM 41.1472 -97.3050 264° West 419 482 36,000  Level Minneapolis Center
11:48PM 41.1361 -97.4522 264° West 418 481 36,000 -300 Level Minneapolis Center
11:49PM 41.1231 -97.6025 263° West 413 475 35,500 -780 Descending Minneapolis Center
11:50PM 41.1111 -97.7553 264° West 414 476 34,500 -780 Descending Minneapolis Center
11:51PM 41.0983 -97.9131 264° West 425 489 34,000 -660 Descending Minneapolis Center
11:52PM 41.0853 -98.0714 264° West 432 497 33,200 -900 Descending Minneapolis Center
11:53PM 41.0717 -98.2272 263° West 427 491 32,200 -600 Descending Minneapolis Center
11:54PM 41.0575 -98.3869 263° West 432 497 32,000 -120 Descending Minneapolis Center
11:55PM 41.0389 -98.5494 261° West 434 499 32,000  Level Minneapolis Center
11:56PM 41.0200 -98.7069 261° West 433 498 32,000  Level Minneapolis Center
11:57PM 41.0019 -98.8667 262° West 438 504 32,000  Level Minneapolis Center
11:57PM 40.9881 -98.9986 262° West 436 502 32,000  Level Denver Center
11:58PM 40.9703 -99.1572 262° West 430 495 32,000  Level Denver Center
11:59PM 40.9525 -99.3117 261° West 426 490 32,000  Level Denver Center
12:00AM 40.9339 -99.4650 261° West 422 486 32,000 -420 Level Denver Center
12:01AM 40.9158 -99.6172 261° West 419 482 31,200 -900 Descending Denver Center
12:02AM 40.8969 -99.7736 261° West 429 494 30,200 -600 Descending Denver Center
12:03AM 40.8772 -99.9386 261° West 437 503 30,000 -120 Descending Denver Center
12:05AM 40.8581 -100.0903 261° West 438 504 30,000  Level Denver Center
12:06AM 40.8356 -100.2675 261° West 437 503 30,000  Level Denver Center
12:07AM 40.8194 -100.3944 261° West 438 504 30,000  Level Denver Center
12:08AM 40.7964 -100.5756 261° West 446 513 30,000  Level Denver Center
12:09AM 40.7744 -100.7331 260° West 448 516 30,000  Level Denver Center
12:10AM 40.7425 -100.9194 257° West 449 517 30,000  Level Denver Center
12:11AM 40.7178 -101.0714 258° West 445 512 30,000  Level Denver Center
12:12AM 40.6908 -101.2225 257° West 442 509 30,000  Level Denver Center
12:13AM 40.6614 -101.3908 257° West 420 483 30,000  Level Denver Center
12:14AM 40.6367 -101.5300 257° West 409 471 30,000  Level Denver Center
12:15AM 40.6081 -101.6911 257° West 407 468 30,000  Level Denver Center
12:16AM 40.5828 -101.8281 256° West 403 464 30,000  Level Denver Center
12:17AM 40.5614 -101.9433 256° West 406 467 30,000  Level Denver Center
12:18AM 40.5289 -102.1239 257° West 396 456 30,000  Level Denver Center
12:19AM 40.5031 -102.2622 256° West 404 465 30,000  Level Denver Center
12:20AM 40.4775 -102.4039 257° West 414 476 30,000  Level Denver Center
12:21AM 40.4472 -102.5656 256° West 410 472 30,000  Level Denver Center
12:22AM 40.4208 -102.7089 256° West 407 468 30,000  Level Denver Center
12:23AM 40.3883 -102.8831 256° West 409 471 30,000 -720 Level Denver Center
12:24AM 40.3606 -103.0297 256° West 414 476 28,600 -1,860 Descending Denver Center
12:25AM 40.3328 -103.1686 255° West 398 458 26,300 -2,400 Descending Denver Center
12:26AM 40.3061 -103.3061 256° West 392 451 23,800 -2,040 Descending Denver Center
12:27AM 40.2811 -103.4414 256° West 384 442 22,200 -1,800 Descending Denver Center
12:28AM 40.2564 -103.5675 256° West 363 418 20,200 -1,680 Descending Denver Center
12:29AM 40.2325 -103.6875 255° West 347 399 18,800 -1,380 Descending Denver Center
12:30AM 40.2083 -103.8169 256° West 326 375 17,400 -1,380 Descending Denver Center
12:31AM 40.2069 -103.9344 269° West 312 359 16,100 -1,260 Descending Denver Center
12:32AM 40.2189 -104.0469 278° West 311 358 14,900 -1,200 Descending Denver Center
12:33AM 40.2283 -104.1575 276° West 309 356 13,700 -1,320 Descending Denver Center
12:34AM 40.2111 -104.2678 258° West 305 351 12,300 -1,380 Descending Denver Center
12:35AM 40.1839 -104.3717 251° West 301 346 11,000 -1,080 Descending Denver Center
12:36AM 40.1353 -104.4642 236° Southwest 282 325 10,200 -600 Descending Denver Center
12:37AM 40.0886 -104.5314 228° Southwest 251 289 9,800 -420 Descending Denver Center
12:38AM 40.0511 -104.5856 228° Southwest 201 231 9,400 -540 Descending Denver Center
12:39AM 40.0289 -104.6428 243° Southwest 179 206 8,700 -900 Descending Denver Center
12:40AM 40.0031 -104.6814 229° Southwest 158 182 7,600 -1,080 Descending Denver Center
12:41AM 39.9619 -104.6861 185° South 138 159 6,600 -840 Descending Denver Center
12:42AM 39.9250 -104.6864 180° South 132 152 5,900 -600 Descending Denver Center
12:43AM 39.8872 -104.6872 181° South 135 155 5,400 -540 Descending Denver Center
12:45AM 39.8617 -104.6732 191° South  Level Estimated